Briggsville, Arkansas
Current Conditions -  °F | °C
As of 4:37 AM on Saturday 22 Nov 2014 (Local Time) from KMWT Reporting Station
Overcast Overcast  
Wind Chill: 56°   Ceiling: 2000
Heat Index: 56°   Visibility: 10mi
Dew Point: 50°   Wind: 0mph
Humidity: 80%   Direction: NA
Pressure: 30.15"   Gusts: NA
Location:  34.93°N, 93.49°W
Report Text: KMWT 221037Z AUTO 00000KT 10SM BKN020 OVC030 13/10 A3015 RMK AO2 T01330100
Loading
Personal Weather Stations






























Interactive Weather Map New forecast layout! Learn more

10-Day Weather Forecast

Advertisements
Track Severe Weather on mobile